sensor_id;sensor_type;location;lat;lon;timestamp;temperature;humidity
18105;DHT22;9179;50.968;3.134;2023-05-10T00:01:35;14.80;99.90
18105;DHT22;9179;50.968;3.134;2023-05-10T00:04:02;14.80;99.90
18105;DHT22;9179;50.968;3.134;2023-05-10T00:06:29;14.90;99.90
18105;DHT22;9179;50.968;3.134;2023-05-10T00:08:57;14.90;99.90
18105;DHT22;9179;50.968;3.134;2023-05-10T00:11:25;14.90;99.90
18105;DHT22;9179;50.968;3.134;2023-05-10T00:13:52;14.90;99.90
18105;DHT22;9179;50.968;3.134;2023-05-10T00:16:19;14.90;99.90
18105;DHT22;9179;50.968;3.134;2023-05-10T00:18:46;14.80;99.90
18105;DHT22;9179;50.968;3.134;2023-05-10T00:21:13;14.70;99.90
18105;DHT22;9179;50.968;3.134;2023-05-10T00:23:40;14.80;99.90
18105;DHT22;9179;50.968;3.134;2023-05-10T00:26:07;14.90;99.90
18105;DHT22;9179;50.968;3.134;2023-05-10T00:28:35;14.90;99.90
18105;DHT22;9179;50.968;3.134;2023-05-10T00:31:02;14.90;99.90
18105;DHT22;9179;50.968;3.134;2023-05-10T00:33:29;14.80;99.90
18105;DHT22;9179;50.968;3.134;2023-05-10T00:35:56;14.90;99.90
18105;DHT22;9179;50.968;3.134;2023-05-10T00:38:23;14.90;99.90
18105;DHT22;9179;50.968;3.134;2023-05-10T00:40:50;14.90;99.90
18105;DHT22;9179;50.968;3.134;2023-05-10T00:43:17;14.90;99.90
18105;DHT22;9179;50.968;3.134;2023-05-10T00:45:45;14.90;99.90
18105;DHT22;9179;50.968;3.134;2023-05-10T00:48:12;15.00;99.90
18105;DHT22;9179;50.968;3.134;2023-05-10T00:50:39;15.00;99.90
18105;DHT22;9179;50.968;3.134;2023-05-10T00:53:07;15.00;99.90
18105;DHT22;9179;50.968;3.134;2023-05-10T00:55:35;14.80;99.90
18105;DHT22;9179;50.968;3.134;2023-05-10T00:58:02;14.80;99.90
18105;DHT22;9179;50.968;3.134;2023-05-10T01:00:29;14.90;99.90
18105;DHT22;9179;50.968;3.134;2023-05-10T01:02:58;14.80;99.90
18105;DHT22;9179;50.968;3.134;2023-05-10T01:05:25;14.80;99.90
18105;DHT22;9179;50.968;3.134;2023-05-10T01:07:53;14.80;99.90
18105;DHT22;9179;50.968;3.134;2023-05-10T01:10:20;14.80;99.90
18105;DHT22;9179;50.968;3.134;2023-05-10T01:12:47;14.80;99.90
18105;DHT22;9179;50.968;3.134;2023-05-10T01:15:15;14.80;99.90
18105;DHT22;9179;50.968;3.134;2023-05-10T01:17:44;14.90;99.90
18105;DHT22;9179;50.968;3.134;2023-05-10T01:20:12;15.00;99.90
18105;DHT22;9179;50.968;3.134;2023-05-10T01:22:57;15.00;99.90
18105;DHT22;9179;50.968;3.134;2023-05-10T01:25:55;15.00;99.90
18105;DHT22;9179;50.968;3.134;2023-05-10T01:28:51;14.90;99.90
18105;DHT22;9179;50.968;3.134;2023-05-10T01:31:33;14.90;99.90
18105;DHT22;9179;50.968;3.134;2023-05-10T01:34:08;14.90;99.90
18105;DHT22;9179;50.968;3.134;2023-05-10T01:36:40;15.00;99.90
18105;DHT22;9179;50.968;3.134;2023-05-10T01:39:13;14.90;99.90
18105;DHT22;9179;50.968;3.134;2023-05-10T01:41:47;14.90;99.90
18105;DHT22;9179;50.968;3.134;2023-05-10T01:44:27;14.90;99.90
18105;DHT22;9179;50.968;3.134;2023-05-10T01:47:01;14.90;99.90
18105;DHT22;9179;50.968;3.134;2023-05-10T01:49:37;14.90;99.90
18105;DHT22;9179;50.968;3.134;2023-05-10T01:52:09;15.00;99.90
18105;DHT22;9179;50.968;3.134;2023-05-10T01:54:40;15.00;99.90
18105;DHT22;9179;50.968;3.134;2023-05-10T01:57:09;15.00;99.90
18105;DHT22;9179;50.968;3.134;2023-05-10T01:59:39;15.00;99.90
18105;DHT22;9179;50.968;3.134;2023-05-10T02:02:07;15.00;99.90
18105;DHT22;9179;50.968;3.134;2023-05-10T02:04:39;14.90;99.90
18105;DHT22;9179;50.968;3.134;2023-05-10T02:07:07;15.00;99.90
18105;DHT22;9179;50.968;3.134;2023-05-10T02:09:35;15.00;99.90
18105;DHT22;9179;50.968;3.134;2023-05-10T02:12:04;15.10;99.90
18105;DHT22;9179;50.968;3.134;2023-05-10T02:14:35;15.00;99.90
18105;DHT22;9179;50.968;3.134;2023-05-10T02:17:05;14.90;99.90
18105;DHT22;9179;50.968;3.134;2023-05-10T02:19:32;15.10;99.90
18105;DHT22;9179;50.968;3.134;2023-05-10T02:22:03;15.00;99.90
18105;DHT22;9179;50.968;3.134;2023-05-10T02:24:32;15.00;99.90
18105;DHT22;9179;50.968;3.134;2023-05-10T02:27:01;15.00;99.90
18105;DHT22;9179;50.968;3.134;2023-05-10T02:29:29;15.00;99.90
18105;DHT22;9179;50.968;3.134;2023-05-10T02:31:57;15.00;99.90
18105;DHT22;9179;50.968;3.134;2023-05-10T02:34:26;15.10;99.90
18105;DHT22;9179;50.968;3.134;2023-05-10T02:36:54;15.10;99.90
18105;DHT22;9179;50.968;3.134;2023-05-10T02:39:24;15.00;99.90
18105;DHT22;9179;50.968;3.134;2023-05-10T02:41:54;15.00;99.90
18105;DHT22;9179;50.968;3.134;2023-05-10T02:44:22;15.00;99.90
18105;DHT22;9179;50.968;3.134;2023-05-10T02:46:50;15.00;99.90
18105;DHT22;9179;50.968;3.134;2023-05-10T02:49:18;15.00;99.90
18105;DHT22;9179;50.968;3.134;2023-05-10T02:51:50;14.90;99.90
18105;DHT22;9179;50.968;3.134;2023-05-10T02:54:20;14.90;99.90
18105;DHT22;9179;50.968;3.134;2023-05-10T02:56:51;14.90;99.90
18105;DHT22;9179;50.968;3.134;2023-05-10T02:59:19;14.80;99.90
18105;DHT22;9179;50.968;3.134;2023-05-10T03:01:46;14.80;99.90
18105;DHT22;9179;50.968;3.134;2023-05-10T03:04:13;14.80;99.90
18105;DHT22;9179;50.968;3.134;2023-05-10T03:06:40;14.80;99.90
18105;DHT22;9179;50.968;3.134;2023-05-10T03:09:08;14.80;99.90
18105;DHT22;9179;50.968;3.134;2023-05-10T03:11:47;14.80;99.90
18105;DHT22;9179;50.968;3.134;2023-05-10T03:14:24;14.80;99.90
18105;DHT22;9179;50.968;3.134;2023-05-10T03:16:58;14.70;99.90
18105;DHT22;9179;50.968;3.134;2023-05-10T03:19:30;14.60;99.90
18105;DHT22;9179;50.968;3.134;2023-05-10T03:22:02;14.50;99.90
18105;DHT22;9179;50.968;3.134;2023-05-10T03:24:30;14.50;99.90
18105;DHT22;9179;50.968;3.134;2023-05-10T03:26:59;14.60;99.90
18105;DHT22;9179;50.968;3.134;2023-05-10T03:29:30;14.70;99.90
18105;DHT22;9179;50.968;3.134;2023-05-10T03:31:58;14.70;99.90
18105;DHT22;9179;50.968;3.134;2023-05-10T03:34:26;14.70;99.90
18105;DHT22;9179;50.968;3.134;2023-05-10T03:36:53;14.50;99.90
18105;DHT22;9179;50.968;3.134;2023-05-10T03:39:19;14.50;99.90
18105;DHT22;9179;50.968;3.134;2023-05-10T03:41:47;14.60;99.90
18105;DHT22;9179;50.968;3.134;2023-05-10T03:44:14;14.60;99.90
18105;DHT22;9179;50.968;3.134;2023-05-10T03:46:43;14.60;99.90
18105;DHT22;9179;50.968;3.134;2023-05-10T03:49:10;14.60;99.90
18105;DHT22;9179;50.968;3.134;2023-05-10T03:51:37;14.60;99.90
18105;DHT22;9179;50.968;3.134;2023-05-10T03:54:04;14.60;99.90
18105;DHT22;9179;50.968;3.134;2023-05-10T03:56:31;14.60;99.90
18105;DHT22;9179;50.968;3.134;2023-05-10T03:58:59;14.60;99.90
18105;DHT22;9179;50.968;3.134;2023-05-10T04:01:26;14.70;99.90
18105;DHT22;9179;50.968;3.134;2023-05-10T04:03:54;14.70;99.90
18105;DHT22;9179;50.968;3.134;2023-05-10T04:06:21;14.70;99.90
18105;DHT22;9179;50.968;3.134;2023-05-10T04:08:48;14.80;99.90
18105;DHT22;9179;50.968;3.134;2023-05-10T04:11:15;14.90;99.90
18105;DHT22;9179;50.968;3.134;2023-05-10T04:13:42;14.90;99.90
18105;DHT22;9179;50.968;3.134;2023-05-10T04:16:09;14.80;99.90
18105;DHT22;9179;50.968;3.134;2023-05-10T04:18:36;14.80;99.90
18105;DHT22;9179;50.968;3.134;2023-05-10T04:21:10;14.80;99.90
18105;DHT22;9179;50.968;3.134;2023-05-10T04:23:37;14.80;99.90
18105;DHT22;9179;50.968;3.134;2023-05-10T04:26:04;14.80;99.90
18105;DHT22;9179;50.968;3.134;2023-05-10T04:28:31;14.80;99.90
18105;DHT22;9179;50.968;3.134;2023-05-10T04:31:02;14.80;99.90
18105;DHT22;9179;50.968;3.134;2023-05-10T04:33:29;14.80;99.90
18105;DHT22;9179;50.968;3.134;2023-05-10T04:35:56;14.80;99.90
18105;DHT22;9179;50.968;3.134;2023-05-10T04:38:24;14.80;99.90
18105;DHT22;9179;50.968;3.134;2023-05-10T04:40:52;14.80;99.90
18105;DHT22;9179;50.968;3.134;2023-05-10T04:43:19;14.90;99.90
18105;DHT22;9179;50.968;3.134;2023-05-10T04:45:46;15.00;99.90
18105;DHT22;9179;50.968;3.134;2023-05-10T04:48:13;15.10;99.90
18105;DHT22;9179;50.968;3.134;2023-05-10T04:50:40;15.20;99.90
18105;DHT22;9179;50.968;3.134;2023-05-10T04:53:07;15.10;99.90
18105;DHT22;9179;50.968;3.134;2023-05-10T04:55:35;15.20;99.90
18105;DHT22;9179;50.968;3.134;2023-05-10T04:58:02;15.20;99.90
18105;DHT22;9179;50.968;3.134;2023-05-10T05:00:30;15.20;99.90
18105;DHT22;9179;50.968;3.134;2023-05-10T05:02:57;15.20;99.90
18105;DHT22;9179;50.968;3.134;2023-05-10T05:05:24;15.40;99.90
18105;DHT22;9179;50.968;3.134;2023-05-10T05:07:51;15.60;99.90
18105;DHT22;9179;50.968;3.134;2023-05-10T05:10:18;15.70;99.90
18105;DHT22;9179;50.968;3.134;2023-05-10T05:12:46;15.80;99.90
18105;DHT22;9179;50.968;3.134;2023-05-10T05:15:13;16.00;99.90
18105;DHT22;9179;50.968;3.134;2023-05-10T05:17:42;16.00;99.90
18105;DHT22;9179;50.968;3.134;2023-05-10T05:20:09;16.00;99.90
18105;DHT22;9179;50.968;3.134;2023-05-10T05:22:37;15.90;99.90
18105;DHT22;9179;50.968;3.134;2023-05-10T05:25:05;16.00;99.90
18105;DHT22;9179;50.968;3.134;2023-05-10T05:27:32;15.90;99.90
18105;DHT22;9179;50.968;3.134;2023-05-10T05:30:00;16.00;99.90
18105;DHT22;9179;50.968;3.134;2023-05-10T05:32:27;16.10;99.90
18105;DHT22;9179;50.968;3.134;2023-05-10T05:34:54;16.20;99.90
18105;DHT22;9179;50.968;3.134;2023-05-10T05:37:21;16.40;99.90
18105;DHT22;9179;50.968;3.134;2023-05-10T05:39:50;16.50;99.90
18105;DHT22;9179;50.968;3.134;2023-05-10T05:42:17;16.70;99.90
18105;DHT22;9179;50.968;3.134;2023-05-10T05:44:44;16.90;99.90
18105;DHT22;9179;50.968;3.134;2023-05-10T05:47:12;17.00;99.90
18105;DHT22;9179;50.968;3.134;2023-05-10T05:49:39;17.00;99.90
18105;DHT22;9179;50.968;3.134;2023-05-10T05:52:06;17.30;99.90
18105;DHT22;9179;50.968;3.134;2023-05-10T05:54:33;17.70;99.90
18105;DHT22;9179;50.968;3.134;2023-05-10T05:57:00;17.80;99.90
18105;DHT22;9179;50.968;3.134;2023-05-10T05:59:27;18.10;99.90
18105;DHT22;9179;50.968;3.134;2023-05-10T06:01:54;18.40;99.90
18105;DHT22;9179;50.968;3.134;2023-05-10T06:04:23;18.70;99.90
18105;DHT22;9179;50.968;3.134;2023-05-10T06:06:50;18.60;99.90
18105;DHT22;9179;50.968;3.134;2023-05-10T06:09:16;18.60;99.90
18105;DHT22;9179;50.968;3.134;2023-05-10T06:11:43;18.60;99.90
18105;DHT22;9179;50.968;3.134;2023-05-10T06:14:10;18.50;99.90
18105;DHT22;9179;50.968;3.134;2023-05-10T06:16:37;18.50;99.90
18105;DHT22;9179;50.968;3.134;2023-05-10T06:19:04;18.40;99.90
18105;DHT22;9179;50.968;3.134;2023-05-10T06:21:33;18.60;99.90
18105;DHT22;9179;50.968;3.134;2023-05-10T06:24:00;18.50;99.90
18105;DHT22;9179;50.968;3.134;2023-05-10T06:26:26;18.90;99.90
18105;DHT22;9179;50.968;3.134;2023-05-10T06:28:53;19.20;99.90
18105;DHT22;9179;50.968;3.134;2023-05-10T06:31:20;19.10;99.90
18105;DHT22;9179;50.968;3.134;2023-05-10T06:33:47;19.00;99.90
18105;DHT22;9179;50.968;3.134;2023-05-10T06:36:14;18.60;99.90
18105;DHT22;9179;50.968;3.134;2023-05-10T06:38:42;18.20;99.90
18105;DHT22;9179;50.968;3.134;2023-05-10T06:41:09;18.00;99.90
18105;DHT22;9179;50.968;3.134;2023-05-10T06:43:37;17.90;99.90
18105;DHT22;9179;50.968;3.134;2023-05-10T06:46:05;17.80;99.90
18105;DHT22;9179;50.968;3.134;2023-05-10T06:48:33;17.90;99.90
18105;DHT22;9179;50.968;3.134;2023-05-10T06:51:00;18.10;99.90
18105;DHT22;9179;50.968;3.134;2023-05-10T06:53:27;17.80;99.90
18105;DHT22;9179;50.968;3.134;2023-05-10T06:55:55;17.60;99.90
18105;DHT22;9179;50.968;3.134;2023-05-10T06:58:22;17.60;99.90
18105;DHT22;9179;50.968;3.134;2023-05-10T07:00:49;17.70;99.90
18105;DHT22;9179;50.968;3.134;2023-05-10T07:03:16;18.00;99.90
18105;DHT22;9179;50.968;3.134;2023-05-10T07:05:43;18.20;99.90
18105;DHT22;9179;50.968;3.134;2023-05-10T07:08:10;18.30;99.90
18105;DHT22;9179;50.968;3.134;2023-05-10T07:10:37;18.50;99.90
18105;DHT22;9179;50.968;3.134;2023-05-10T07:13:05;18.60;99.90
18105;DHT22;9179;50.968;3.134;2023-05-10T07:15:32;18.60;99.90
18105;DHT22;9179;50.968;3.134;2023-05-10T07:17:59;18.60;99.90
18105;DHT22;9179;50.968;3.134;2023-05-10T07:20:26;18.40;99.90
18105;DHT22;9179;50.968;3.134;2023-05-10T07:22:53;18.10;99.90
18105;DHT22;9179;50.968;3.134;2023-05-10T07:25:20;18.00;99.90
18105;DHT22;9179;50.968;3.134;2023-05-10T07:27:47;18.00;99.90
18105;DHT22;9179;50.968;3.134;2023-05-10T07:30:16;18.30;99.90
18105;DHT22;9179;50.968;3.134;2023-05-10T07:32:42;18.70;99.90
18105;DHT22;9179;50.968;3.134;2023-05-10T07:35:10;19.20;99.90
18105;DHT22;9179;50.968;3.134;2023-05-10T07:37:37;19.80;99.90
18105;DHT22;9179;50.968;3.134;2023-05-10T07:40:05;20.40;99.90
18105;DHT22;9179;50.968;3.134;2023-05-10T07:42:32;21.10;99.90
18105;DHT22;9179;50.968;3.134;2023-05-10T07:44:59;21.30;99.90
18105;DHT22;9179;50.968;3.134;2023-05-10T07:47:27;21.10;99.90
18105;DHT22;9179;50.968;3.134;2023-05-10T07:49:54;20.80;99.90
18105;DHT22;9179;50.968;3.134;2023-05-10T07:52:21;20.80;99.90
18105;DHT22;9179;50.968;3.134;2023-05-10T07:54:48;20.70;99.90
18105;DHT22;9179;50.968;3.134;2023-05-10T07:57:15;20.80;99.90
18105;DHT22;9179;50.968;3.134;2023-05-10T07:59:43;20.50;99.90
18105;DHT22;9179;50.968;3.134;2023-05-10T08:02:11;20.40;99.90
18105;DHT22;9179;50.968;3.134;2023-05-10T08:04:39;19.90;99.90
18105;DHT22;9179;50.968;3.134;2023-05-10T08:07:06;19.50;99.90
18105;DHT22;9179;50.968;3.134;2023-05-10T08:09:33;19.40;99.90
18105;DHT22;9179;50.968;3.134;2023-05-10T08:12:00;19.40;99.90
18105;DHT22;9179;50.968;3.134;2023-05-10T08:14:28;19.50;99.90
18105;DHT22;9179;50.968;3.134;2023-05-10T08:16:55;20.00;99.90
18105;DHT22;9179;50.968;3.134;2023-05-10T08:19:22;20.70;99.90
18105;DHT22;9179;50.968;3.134;2023-05-10T08:21:51;21.30;99.90
18105;DHT22;9179;50.968;3.134;2023-05-10T08:24:18;21.40;99.90
18105;DHT22;9179;50.968;3.134;2023-05-10T08:26:45;21.10;99.90
18105;DHT22;9179;50.968;3.134;2023-05-10T08:29:13;20.40;99.90
18105;DHT22;9179;50.968;3.134;2023-05-10T08:31:40;19.90;99.90
18105;DHT22;9179;50.968;3.134;2023-05-10T08:34:07;19.20;99.90
18105;DHT22;9179;50.968;3.134;2023-05-10T08:36:34;18.70;99.90
18105;DHT22;9179;50.968;3.134;2023-05-10T08:39:03;18.40;99.90
18105;DHT22;9179;50.968;3.134;2023-05-10T08:41:30;18.10;99.90
18105;DHT22;9179;50.968;3.134;2023-05-10T08:44:03;17.90;99.90
18105;DHT22;9179;50.968;3.134;2023-05-10T08:46:31;17.80;99.90
18105;DHT22;9179;50.968;3.134;2023-05-10T08:49:02;17.80;99.90
18105;DHT22;9179;50.968;3.134;2023-05-10T08:51:33;17.80;99.90
18105;DHT22;9179;50.968;3.134;2023-05-10T08:54:03;17.70;99.90
18105;DHT22;9179;50.968;3.134;2023-05-10T08:56:31;17.70;99.90
18105;DHT22;9179;50.968;3.134;2023-05-10T08:58:58;17.70;99.90
18105;DHT22;9179;50.968;3.134;2023-05-10T09:01:25;17.70;99.90
18105;DHT22;9179;50.968;3.134;2023-05-10T09:03:53;17.90;99.90
18105;DHT22;9179;50.968;3.134;2023-05-10T09:06:20;17.90;99.90
18105;DHT22;9179;50.968;3.134;2023-05-10T09:08:48;17.90;99.90
18105;DHT22;9179;50.968;3.134;2023-05-10T09:11:16;17.70;99.90
18105;DHT22;9179;50.968;3.134;2023-05-10T09:13:44;17.70;99.90
18105;DHT22;9179;50.968;3.134;2023-05-10T09:16:11;17.60;99.90
18105;DHT22;9179;50.968;3.134;2023-05-10T09:18:38;17.60;99.90
18105;DHT22;9179;50.968;3.134;2023-05-10T09:21:05;17.40;99.90
18105;DHT22;9179;50.968;3.134;2023-05-10T09:23:32;17.20;99.90
18105;DHT22;9179;50.968;3.134;2023-05-10T09:26:02;16.80;99.90
18105;DHT22;9179;50.968;3.134;2023-05-10T09:28:33;16.40;99.90
18105;DHT22;9179;50.968;3.134;2023-05-10T09:31:00;16.30;99.90
18105;DHT22;9179;50.968;3.134;2023-05-10T09:33:27;16.80;99.90
18105;DHT22;9179;50.968;3.134;2023-05-10T09:35:54;17.60;99.90
18105;DHT22;9179;50.968;3.134;2023-05-10T09:38:21;18.40;99.90
18105;DHT22;9179;50.968;3.134;2023-05-10T09:40:52;19.10;99.90
18105;DHT22;9179;50.968;3.134;2023-05-10T09:43:21;19.50;99.90
18105;DHT22;9179;50.968;3.134;2023-05-10T09:45:49;20.30;99.90
18105;DHT22;9179;50.968;3.134;2023-05-10T09:48:16;21.50;99.90
18105;DHT22;9179;50.968;3.134;2023-05-10T09:50:43;22.60;99.90
18105;DHT22;9179;50.968;3.134;2023-05-10T09:53:14;23.10;99.90
18105;DHT22;9179;50.968;3.134;2023-05-10T09:55:45;22.90;99.90
18105;DHT22;9179;50.968;3.134;2023-05-10T09:58:13;22.80;99.90
18105;DHT22;9179;50.968;3.134;2023-05-10T10:00:41;22.80;99.90
18105;DHT22;9179;50.968;3.134;2023-05-10T10:03:14;22.70;99.90
18105;DHT22;9179;50.968;3.134;2023-05-10T10:05:42;22.50;99.90
18105;DHT22;9179;50.968;3.134;2023-05-10T10:08:10;22.40;99.90
18105;DHT22;9179;50.968;3.134;2023-05-10T10:10:37;22.20;99.90
18105;DHT22;9179;50.968;3.134;2023-05-10T10:13:06;22.50;99.90
18105;DHT22;9179;50.968;3.134;2023-05-10T10:15:33;22.30;99.90
18105;DHT22;9179;50.968;3.134;2023-05-10T10:18:01;22.30;99.90
18105;DHT22;9179;50.968;3.134;2023-05-10T10:20:30;22.70;99.90
18105;DHT22;9179;50.968;3.134;2023-05-10T10:22:57;22.40;99.90
18105;DHT22;9179;50.968;3.134;2023-05-10T10:25:25;22.90;99.90
18105;DHT22;9179;50.968;3.134;2023-05-10T10:28:11;23.40;99.90
18105;DHT22;9179;50.968;3.134;2023-05-10T10:30:47;23.50;99.90
18105;DHT22;9179;50.968;3.134;2023-05-10T10:33:33;23.90;99.90
18105;DHT22;9179;50.968;3.134;2023-05-10T10:36:05;24.90;99.90
18105;DHT22;9179;50.968;3.134;2023-05-10T10:38:56;26.10;99.90
18105;DHT22;9179;50.968;3.134;2023-05-10T10:41:29;26.30;99.90
18105;DHT22;9179;50.968;3.134;2023-05-10T10:44:35;26.30;99.90
18105;DHT22;9179;50.968;3.134;2023-05-10T10:47:06;26.10;99.90
18105;DHT22;9179;50.968;3.134;2023-05-10T10:49:43;26.30;99.90
18105;DHT22;9179;50.968;3.134;2023-05-10T10:52:27;26.70;99.90
18105;DHT22;9179;50.968;3.134;2023-05-10T10:55:02;25.80;99.90
18105;DHT22;9179;50.968;3.134;2023-05-10T10:57:33;25.80;99.90
18105;DHT22;9179;50.968;3.134;2023-05-10T11:00:19;25.60;99.90
18105;DHT22;9179;50.968;3.134;2023-05-10T11:02:48;25.10;99.90
18105;DHT22;9179;50.968;3.134;2023-05-10T11:05:41;24.20;99.90
18105;DHT22;9179;50.968;3.134;2023-05-10T11:08:15;23.90;99.90
18105;DHT22;9179;50.968;3.134;2023-05-10T11:10:51;23.20;99.90
18105;DHT22;9179;50.968;3.134;2023-05-10T11:13:30;22.90;99.90
18105;DHT22;9179;50.968;3.134;2023-05-10T11:15:58;25.00;99.90
18105;DHT22;9179;50.968;3.134;2023-05-10T11:18:26;26.30;99.90
18105;DHT22;9179;50.968;3.134;2023-05-10T11:20:57;27.90;99.90
18105;DHT22;9179;50.968;3.134;2023-05-10T11:23:30;28.80;99.90
18105;DHT22;9179;50.968;3.134;2023-05-10T11:25:57;28.70;99.90
18105;DHT22;9179;50.968;3.134;2023-05-10T11:28:24;27.20;99.90
18105;DHT22;9179;50.968;3.134;2023-05-10T11:30:52;26.70;99.90
18105;DHT22;9179;50.968;3.134;2023-05-10T11:33:19;26.90;99.90
18105;DHT22;9179;50.968;3.134;2023-05-10T11:35:46;27.00;99.90
18105;DHT22;9179;50.968;3.134;2023-05-10T11:38:14;26.30;99.90
18105;DHT22;9179;50.968;3.134;2023-05-10T11:40:42;25.30;99.90
18105;DHT22;9179;50.968;3.134;2023-05-10T11:43:10;25.20;99.90
18105;DHT22;9179;50.968;3.134;2023-05-10T11:45:39;24.90;99.90
18105;DHT22;9179;50.968;3.134;2023-05-10T11:48:06;25.10;99.90
18105;DHT22;9179;50.968;3.134;2023-05-10T11:50:34;25.50;99.90
18105;DHT22;9179;50.968;3.134;2023-05-10T11:53:01;26.40;99.90
18105;DHT22;9179;50.968;3.134;2023-05-10T11:55:28;26.80;99.90
18105;DHT22;9179;50.968;3.134;2023-05-10T11:58:01;27.20;99.90
18105;DHT22;9179;50.968;3.134;2023-05-10T12:00:29;27.70;99.90
18105;DHT22;9179;50.968;3.134;2023-05-10T12:02:57;28.00;99.90
18105;DHT22;9179;50.968;3.134;2023-05-10T12:05:24;27.10;99.90
18105;DHT22;9179;50.968;3.134;2023-05-10T12:07:51;27.50;99.90
18105;DHT22;9179;50.968;3.134;2023-05-10T12:10:25;27.50;99.90
18105;DHT22;9179;50.968;3.134;2023-05-10T12:12:52;27.90;99.90
18105;DHT22;9179;50.968;3.134;2023-05-10T12:15:22;28.50;99.90
18105;DHT22;9179;50.968;3.134;2023-05-10T12:17:49;29.60;99.90
18105;DHT22;9179;50.968;3.134;2023-05-10T12:20:17;29.60;99.90
18105;DHT22;9179;50.968;3.134;2023-05-10T12:22:46;28.80;99.90
18105;DHT22;9179;50.968;3.134;2023-05-10T12:25:13;28.50;99.90
18105;DHT22;9179;50.968;3.134;2023-05-10T12:27:40;28.80;99.90
18105;DHT22;9179;50.968;3.134;2023-05-10T12:30:08;28.60;99.90
18105;DHT22;9179;50.968;3.134;2023-05-10T12:32:40;29.50;99.90
18105;DHT22;9179;50.968;3.134;2023-05-10T12:35:08;29.10;99.90
18105;DHT22;9179;50.968;3.134;2023-05-10T12:37:35;28.40;99.90
18105;DHT22;9179;50.968;3.134;2023-05-10T12:40:06;28.50;99.90
18105;DHT22;9179;50.968;3.134;2023-05-10T12:42:35;28.20;99.90
18105;DHT22;9179;50.968;3.134;2023-05-10T12:45:02;27.30;99.90
18105;DHT22;9179;50.968;3.134;2023-05-10T12:47:29;27.10;99.90
18105;DHT22;9179;50.968;3.134;2023-05-10T12:49:59;27.40;99.90
18105;DHT22;9179;50.968;3.134;2023-05-10T12:52:26;27.50;99.90
18105;DHT22;9179;50.968;3.134;2023-05-10T12:54:53;26.90;99.90
18105;DHT22;9179;50.968;3.134;2023-05-10T12:57:21;27.20;99.90
18105;DHT22;9179;50.968;3.134;2023-05-10T12:59:48;27.70;99.00
18105;DHT22;9179;50.968;3.134;2023-05-10T13:02:15;28.00;99.30
18105;DHT22;9179;50.968;3.134;2023-05-10T13:04:43;27.90;97.80
18105;DHT22;9179;50.968;3.134;2023-05-10T13:07:13;28.00;95.80
18105;DHT22;9179;50.968;3.134;2023-05-10T13:09:40;28.30;96.00
18105;DHT22;9179;50.968;3.134;2023-05-10T13:12:07;28.60;94.80
18105;DHT22;9179;50.968;3.134;2023-05-10T13:14:34;29.10;94.60
18105;DHT22;9179;50.968;3.134;2023-05-10T13:17:01;29.50;92.70
18105;DHT22;9179;50.968;3.134;2023-05-10T13:19:28;29.60;92.40
18105;DHT22;9179;50.968;3.134;2023-05-10T13:21:55;28.00;90.40
18105;DHT22;9179;50.968;3.134;2023-05-10T13:24:23;27.60;91.70
18105;DHT22;9179;50.968;3.134;2023-05-10T13:26:50;27.60;91.80
18105;DHT22;9179;50.968;3.134;2023-05-10T13:29:17;26.80;92.10
18105;DHT22;9179;50.968;3.134;2023-05-10T13:31:44;26.10;92.40
18105;DHT22;9179;50.968;3.134;2023-05-10T13:34:12;25.50;93.80
18105;DHT22;9179;50.968;3.134;2023-05-10T13:36:39;26.40;93.30
18105;DHT22;9179;50.968;3.134;2023-05-10T13:39:06;26.20;92.20
18105;DHT22;9179;50.968;3.134;2023-05-10T13:41:34;25.40;93.20
18105;DHT22;9179;50.968;3.134;2023-05-10T13:44:02;26.10;93.60
18105;DHT22;9179;50.968;3.134;2023-05-10T13:46:29;26.10;92.30
18105;DHT22;9179;50.968;3.134;2023-05-10T13:48:56;26.00;92.90
18105;DHT22;9179;50.968;3.134;2023-05-10T13:51:23;25.70;92.70
18105;DHT22;9179;50.968;3.134;2023-05-10T13:53:50;25.70;92.60
18105;DHT22;9179;50.968;3.134;2023-05-10T13:56:17;26.80;92.80
18105;DHT22;9179;50.968;3.134;2023-05-10T13:58:45;27.70;91.30
18105;DHT22;9179;50.968;3.134;2023-05-10T14:01:13;28.70;90.10
18105;DHT22;9179;50.968;3.134;2023-05-10T14:03:39;30.40;85.90
18105;DHT22;9179;50.968;3.134;2023-05-10T14:06:07;31.00;82.60
18105;DHT22;9179;50.968;3.134;2023-05-10T14:08:35;32.20;80.30
18105;DHT22;9179;50.968;3.134;2023-05-10T14:11:02;32.40;75.30
18105;DHT22;9179;50.968;3.134;2023-05-10T14:13:29;31.90;76.00
18105;DHT22;9179;50.968;3.134;2023-05-10T14:15:57;32.30;74.80
18105;DHT22;9179;50.968;3.134;2023-05-10T14:18:26;32.80;71.80
18105;DHT22;9179;50.968;3.134;2023-05-10T14:20:53;33.30;69.50
18105;DHT22;9179;50.968;3.134;2023-05-10T14:23:21;31.50;69.20
18105;DHT22;9179;50.968;3.134;2023-05-10T14:25:50;31.00;71.90
18105;DHT22;9179;50.968;3.134;2023-05-10T14:28:17;32.30;69.50
18105;DHT22;9179;50.968;3.134;2023-05-10T14:30:46;33.40;67.60
18105;DHT22;9179;50.968;3.134;2023-05-10T14:33:14;34.00;63.70
18105;DHT22;9179;50.968;3.134;2023-05-10T14:35:41;35.60;63.00
18105;DHT22;9179;50.968;3.134;2023-05-10T14:38:08;36.00;58.90
18105;DHT22;9179;50.968;3.134;2023-05-10T14:40:36;36.40;57.40
18105;DHT22;9179;50.968;3.134;2023-05-10T14:43:03;35.50;56.20
18105;DHT22;9179;50.968;3.134;2023-05-10T14:45:30;35.00;57.00
18105;DHT22;9179;50.968;3.134;2023-05-10T14:47:57;35.70;56.70
18105;DHT22;9179;50.968;3.134;2023-05-10T14:50:26;36.00;57.30
18105;DHT22;9179;50.968;3.134;2023-05-10T14:52:53;35.70;56.10
18105;DHT22;9179;50.968;3.134;2023-05-10T14:55:20;35.60;55.80
18105;DHT22;9179;50.968;3.134;2023-05-10T14:57:47;33.30;57.40
18105;DHT22;9179;50.968;3.134;2023-05-10T15:00:16;32.40;58.70
18105;DHT22;9179;50.968;3.134;2023-05-10T15:02:44;33.40;57.80
18105;DHT22;9179;50.968;3.134;2023-05-10T15:05:11;32.30;58.40
18105;DHT22;9179;50.968;3.134;2023-05-10T15:07:40;30.50;60.40
18105;DHT22;9179;50.968;3.134;2023-05-10T15:10:09;28.10;64.20
18105;DHT22;9179;50.968;3.134;2023-05-10T15:12:36;26.20;68.90
18105;DHT22;9179;50.968;3.134;2023-05-10T15:15:04;25.00;71.90
18105;DHT22;9179;50.968;3.134;2023-05-10T15:17:31;24.60;74.00
18105;DHT22;9179;50.968;3.134;2023-05-10T15:19:58;24.10;74.90
18105;DHT22;9179;50.968;3.134;2023-05-10T15:22:25;23.80;75.00
18105;DHT22;9179;50.968;3.134;2023-05-10T15:24:55;24.60;75.00
18105;DHT22;9179;50.968;3.134;2023-05-10T15:27:22;26.50;73.80
18105;DHT22;9179;50.968;3.134;2023-05-10T15:29:49;29.90;67.10
18105;DHT22;9179;50.968;3.134;2023-05-10T15:32:16;31.60;62.90
18105;DHT22;9179;50.968;3.134;2023-05-10T15:34:43;32.70;60.50
18105;DHT22;9179;50.968;3.134;2023-05-10T15:37:10;32.40;59.50
18105;DHT22;9179;50.968;3.134;2023-05-10T15:39:37;32.40;59.20
18105;DHT22;9179;50.968;3.134;2023-05-10T15:42:05;34.00;57.60
18105;DHT22;9179;50.968;3.134;2023-05-10T15:44:32;34.10;56.00
18105;DHT22;9179;50.968;3.134;2023-05-10T15:47:00;34.40;54.90
18105;DHT22;9179;50.968;3.134;2023-05-10T15:49:28;34.00;54.20
18105;DHT22;9179;50.968;3.134;2023-05-10T15:51:54;34.60;55.30
18105;DHT22;9179;50.968;3.134;2023-05-10T15:54:21;35.90;53.20